Time;durP1;ratioP1;P1;durP2;ratioP2;P2;SDS_P1;SDS_P2;PMS_P1;PMS_P2;Temp;Humidity;BMP_temperature;BMP_pressure;BME280_temperature;BME280_humidity;BME280_pressure;Samples;Min_cycle;Max_cycle;Signal;HPM_P1;HPM_P2
2021/12/02 00:01:20;;;;;;;3.92;0.98;;;;;;;5.14;88.14;100038.84;5041949;28;20036;-83
2021/12/02 00:03:47;;;;;;;6.28;0.82;;;;;;;5.14;88.29;100042.28;5042666;28;20029;-83
2021/12/02 00:06:14;;;;;;;9.32;0.85;;;;;;;5.14;88.19;100038.84;5042527;28;20100;-83
2021/12/02 00:08:40;;;;;;;10.98;1.08;;;;;;;5.13;87.47;100052.69;5025719;28;20100;-83
2021/12/02 00:11:05;;;;;;;7.05;1.23;;;;;;;5.11;86.82;100063.16;5005704;28;20029;-83
2021/12/02 00:13:38;;;;;;;10.52;1.00;;;;;;;5.08;86.33;100052.03;5018462;28;20048;-83
2021/12/02 00:16:20;;;;;;;3.50;0.70;;;;;;;5.11;86.84;100070.06;5041250;28;20110;-83
2021/12/02 00:21:20;;;;;;;7.15;1.08;;;;;;;5.05;84.73;100057.28;5041984;28;20103;-83
2021/12/02 00:23:58;;;;;;;8.25;0.70;;;;;;;5.00;83.84;100058.28;5043008;28;20355;-83
2021/12/02 00:26:23;;;;;;;6.15;0.55;;;;;;;4.95;83.33;100060.16;5059319;28;20096;-83
2021/12/02 00:28:53;;;;;;;9.77;0.88;;;;;;;4.91;82.90;100058.56;5005988;28;20108;-83
2021/12/02 00:31:25;;;;;;;2.25;0.60;;;;;;;4.88;82.57;100055.22;5035172;28;20154;-83
2021/12/02 00:33:52;;;;;;;2.33;0.60;;;;;;;4.86;81.80;100056.97;5029443;28;20236;-83
2021/12/02 00:36:19;;;;;;;2.30;0.40;;;;;;;4.82;81.86;100058.84;5024761;28;20040;-82
2021/12/02 00:38:46;;;;;;;2.92;0.75;;;;;;;4.79;81.46;100058.94;5025905;28;20382;-83
2021/12/02 00:41:13;;;;;;;9.05;1.20;;;;;;;4.76;81.13;100061.59;5059539;28;20351;-83
2021/12/02 00:43:39;;;;;;;6.50;0.80;;;;;;;4.72;81.24;100060.84;5025294;28;20040;-83
2021/12/02 00:46:10;;;;;;;4.65;0.68;;;;;;;4.70;81.84;100059.19;5024806;28;20325;-83
2021/12/02 00:48:36;;;;;;;4.07;0.75;;;;;;;4.69;81.63;100057.47;5058587;28;20055;-83
2021/12/02 00:51:02;;;;;;;4.40;0.57;;;;;;;4.70;82.02;100054.84;5025300;28;20103;-83
2021/12/02 00:53:27;;;;;;;5.50;0.98;;;;;;;4.69;82.36;100047.94;5025695;28;20052;-83
2021/12/02 00:55:53;;;;;;;7.82;0.60;;;;;;;4.69;81.75;100053.13;5026890;28;20324;-83
2021/12/02 00:58:20;;;;;;;2.33;0.63;;;;;;;4.69;82.25;100055.72;5058396;28;20247;-82
2021/12/02 01:00:50;;;;;;;7.70;1.10;;;;;;;4.69;82.38;100052.28;5025915;28;20036;-83
2021/12/02 01:03:16;;;;;;;8.00;1.10;;;;;;;4.68;82.32;100056.63;5059621;28;20403;-83
2021/12/02 01:05:41;;;;;;;5.60;0.65;;;;;;;4.69;82.34;100062.66;5041245;28;20104;-83
2021/12/02 01:08:07;;;;;;;12.25;1.63;;;;;;;4.70;82.73;100064.38;5025116;28;20053;-82
2021/12/02 01:10:32;;;;;;;8.05;1.20;;;;;;;4.72;82.48;100068.63;5024866;28;20028;-82
2021/12/02 01:12:58;;;;;;;4.40;0.93;;;;;;;4.73;82.49;100072.94;5041573;28;20039;-83
2021/12/02 01:15:25;;;;;;;11.45;0.93;;;;;;;4.76;83.00;100066.78;5058829;28;20040;-83
2021/12/02 01:17:51;;;;;;;4.93;0.93;;;;;;;4.78;83.33;100071.06;5042188;28;20056;-83
2021/12/02 01:20:18;;;;;;;4.85;0.73;;;;;;;4.81;83.30;100064.91;5041815;28;20091;-83
2021/12/02 01:22:44;;;;;;;7.10;0.75;;;;;;;4.85;83.66;100070.88;5042396;28;20025;-83
2021/12/02 01:25:09;;;;;;;9.85;0.93;;;;;;;4.87;83.55;100075.09;5025372;28;20037;-82
2021/12/02 01:27:35;;;;;;;6.70;1.20;;;;;;;4.89;83.54;100078.50;5010667;28;20064;-82
2021/12/02 01:30:03;;;;;;;7.35;1.90;;;;;;;4.90;82.87;100079.38;5029124;28;20068;-83
2021/12/02 01:32:32;;;;;;;8.13;1.38;;;;;;;4.89;82.68;100085.44;5029096;28;20040;-83
2021/12/02 01:34:58;;;;;;;6.72;1.10;;;;;;;4.88;82.89;100070.78;5029043;28;20037;-83
2021/12/02 01:37:23;;;;;;;6.50;1.00;;;;;;;4.88;82.89;100076.81;5028896;28;20032;-83
2021/12/02 01:39:49;;;;;;;7.50;0.70;;;;;;;4.89;83.05;100081.09;5044763;28;20060;-83
2021/12/02 01:42:23;;;;;;;6.07;0.88;;;;;;;4.86;81.88;100072.53;5045452;28;20332;-83
2021/12/02 01:44:48;;;;;;;5.10;0.60;;;;;;;4.82;79.97;100077.00;5038398;28;20036;-83
2021/12/02 01:47:15;;;;;;;4.97;0.60;;;;;;;4.80;80.18;100066.66;5028935;28;20217;-83
2021/12/02 01:49:41;;;;;;;4.43;0.43;;;;;;;4.81;80.85;100065.75;5028902;28;20056;-83
2021/12/02 01:52:11;;;;;;;3.10;0.98;;;;;;;4.79;79.96;100072.75;5045456;28;20324;-82
2021/12/02 01:54:42;;;;;;;6.22;1.08;;;;;;;4.78;79.26;100067.59;5045148;28;20052;-83
2021/12/02 01:57:08;;;;;;;8.85;1.00;;;;;;;4.75;78.77;100067.69;5029480;28;20224;-83
2021/12/02 01:59:35;;;;;;;6.28;1.33;;;;;;;4.75;79.63;100070.28;5044642;28;20040;-83
2021/12/02 02:05:12;;;;;;;6.20;0.75;;;;;;;4.74;80.10;100066.81;5053639;28;20045;-83
2021/12/02 02:07:52;;;;;;;1.98;0.90;;;;;;;4.75;80.94;100059.91;5045754;28;20116;-83
2021/12/02 02:10:17;;;;;;;5.53;0.73;;;;;;;4.78;81.45;100065.00;5028587;28;20055;-83
2021/12/02 02:12:43;;;;;;;3.58;0.60;;;;;;;4.77;81.36;100066.75;5062452;28;20029;-83
2021/12/02 02:15:09;;;;;;;3.03;0.68;;;;;;;4.78;81.78;100083.16;5044557;28;20033;-82
2021/12/02 02:17:45;;;;;;;2.83;0.50;;;;;;;4.79;81.71;100093.50;5044118;28;20036;-83
2021/12/02 02:20:13;;;;;;;5.70;0.63;;;;;;;4.84;81.79;100102.88;5046798;28;20037;-83
2021/12/02 02:22:39;;;;;;;2.30;0.65;;;;;;;4.83;82.04;100108.97;5061727;28;20102;-82
2021/12/02 02:25:11;;;;;;;3.20;0.47;;;;;;;4.80;82.06;100108.19;5028645;28;20033;-83
2021/12/02 02:27:36;;;;;;;2.30;0.43;;;;;;;4.83;82.60;100101.19;5025458;28;20049;-83
2021/12/02 02:30:02;;;;;;;3.15;0.52;;;;;;;4.86;83.24;100096.78;5025430;28;20028;-83
2021/12/02 02:32:28;;;;;;;1.13;0.30;;;;;;;4.88;82.99;100087.19;5041190;28;20341;-82
2021/12/02 02:34:53;;;;;;;5.18;0.30;;;;;;;4.84;80.80;100097.69;5042567;28;20037;-83
2021/12/02 02:37:19;;;;;;;3.55;0.25;;;;;;;4.77;79.41;100092.69;5041231;28;20071;-83
2021/12/02 02:39:45;;;;;;;2.58;0.55;;;;;;;4.73;78.85;100087.63;5040711;28;20088;-83
2021/12/02 02:42:10;;;;;;;3.10;0.57;;;;;;;4.71;79.44;100084.22;5041412;28;20225;-83
2021/12/02 02:44:36;;;;;;;1.27;0.40;;;;;;;4.69;79.53;100093.78;5041170;28;20087;-83
2021/12/02 02:47:01;;;;;;;1.65;0.57;;;;;;;4.68;80.10;100095.53;5008633;28;20099;-83
2021/12/02 02:49:27;;;;;;;2.50;0.70;;;;;;;4.68;80.28;100105.06;5041313;28;20045;-83
2021/12/02 02:51:53;;;;;;;5.25;0.90;;;;;;;4.67;80.25;100101.63;5041648;28;20545;-83
2021/12/02 02:54:19;;;;;;;1.77;0.60;;;;;;;4.65;79.67;100103.41;5024695;28;20068;-83
2021/12/02 02:56:54;;;;;;;2.72;0.55;;;;;;;4.61;79.69;100113.00;5041271;28;20033;-83
2021/12/02 03:00:34;;;;;;;3.08;0.60;;;;;;;4.64;80.70;100125.06;4990644;28;20026;-83
2021/12/02 03:05:51;;;;;;;4.05;0.60;;;;;;;4.63;81.59;100110.38;5042491;28;20388;-83
2021/12/02 03:07:46;;;;;;;5.63;1.08;;;;;;;4.61;81.05;100110.41;5033040;28;20068;-83
2021/12/02 03:12:59;;;;;;;2.53;0.50;;;;;;;4.57;81.27;100110.56;5035662;28;20095;-83
2021/12/02 03:18:09;;;;;;;1.00;0.43;;;;;;;4.50;80.60;100106.44;5021892;28;20160;-81
2021/12/02 03:20:34;;;;;;;2.53;0.40;;;;;;;4.47;81.02;100111.69;5034588;28;20054;-81
2021/12/02 03:23:00;;;;;;;2.35;0.30;;;;;;;4.48;81.90;100121.19;5021316;28;20048;-81
2021/12/02 03:25:25;;;;;;;0.85;0.40;;;;;;;4.51;82.35;100116.78;5039653;28;20038;-81
2021/12/02 03:27:52;;;;;;;2.55;0.57;;;;;;;4.58;82.62;100123.50;5039605;28;20060;-81
2021/12/02 03:30:17;;;;;;;6.18;0.85;;;;;;;4.66;82.97;100109.44;5038906;28;20395;-81
2021/12/02 03:32:43;;;;;;;3.38;0.88;;;;;;;4.73;83.73;100105.78;5039108;28;20301;-81
2021/12/02 03:35:08;;;;;;;1.48;0.40;;;;;;;4.80;84.71;100104.72;5039769;28;20033;-81
2021/12/02 03:37:34;;;;;;;3.97;0.60;;;;;;;4.86;85.68;100096.78;5022324;28;20241;-81
2021/12/02 03:39:59;;;;;;;1.08;0.43;;;;;;;4.86;85.19;100121.84;5039455;28;20048;-81
2021/12/02 03:42:25;;;;;;;7.70;0.68;;;;;;;4.84;85.39;100123.63;5055341;28;20029;-81
2021/12/02 03:44:50;;;;;;;5.00;0.40;;;;;;;4.79;84.97;100119.44;5039492;28;20068;-81
2021/12/02 03:47:15;;;;;;;4.10;0.52;;;;;;;4.76;85.25;100109.13;5039204;28;20044;-81
2021/12/02 03:49:41;;;;;;;6.10;0.35;;;;;;;4.72;85.08;100112.72;5022376;28;20333;-81
2021/12/02 03:52:07;;;;;;;2.90;0.40;;;;;;;4.68;85.49;100118.88;5040690;28;20087;-81
2021/12/02 03:54:32;;;;;;;3.53;0.57;;;;;;;4.63;84.75;100115.56;5022751;28;20062;-81
2021/12/02 03:56:58;;;;;;;1.30;0.43;;;;;;;4.60;84.34;100111.34;5039526;28;20037;-81
2021/12/02 03:59:23;;;;;;;9.40;0.80;;;;;;;4.57;84.60;100107.97;5040093;28;20045;-81
2021/12/02 04:01:49;;;;;;;4.10;0.73;;;;;;;4.52;84.52;100110.66;5040254;28;20049;-81
2021/12/02 04:04:15;;;;;;;4.55;0.73;;;;;;;4.49;84.87;100105.56;5041597;28;20047;-81
2021/12/02 04:06:40;;;;;;;2.78;0.57;;;;;;;4.51;85.38;100113.31;5039987;28;20287;-81
2021/12/02 04:09:14;;;;;;;3.47;0.60;;;;;;;4.51;85.52;100119.38;5039620;28;20059;-81
2021/12/02 04:11:46;;;;;;;3.45;0.50;;;;;;;4.53;86.07;100117.56;5039565;28;20041;-81
2021/12/02 04:14:24;;;;;;;3.85;0.60;;;;;;;4.56;86.33;100114.88;5020524;28;20101;-81
2021/12/02 04:17:01;;;;;;;4.37;0.80;;;;;;;4.58;86.56;100117.44;5020465;28;20153;-81
2021/12/02 04:19:26;;;;;;;2.83;0.75;;;;;;;4.55;85.53;100138.28;5021183;28;20072;-81
2021/12/02 04:21:52;;;;;;;4.50;0.85;;;;;;;4.51;84.06;100131.47;5035424;28;20049;-80
2021/12/02 04:24:17;;;;;;;4.68;0.65;;;;;;;4.42;83.56;100140.31;5039953;28;20045;-81
2021/12/02 04:26:43;;;;;;;2.45;0.50;;;;;;;4.38;84.48;100146.50;5044191;28;20057;-81
2021/12/02 04:29:09;;;;;;;1.52;0.60;;;;;;;4.37;84.88;100137.88;5026826;28;20024;-80
2021/12/02 04:31:34;;;;;;;1.63;0.88;;;;;;;4.35;85.04;100144.00;5025903;28;20116;-81
2021/12/02 04:34:00;;;;;;;2.40;0.30;;;;;;;4.34;85.61;100122.38;5042700;28;20252;-81
2021/12/02 04:36:25;;;;;;;0.75;0.20;;;;;;;4.36;86.31;100117.16;5042709;28;20212;-81
2021/12/02 04:38:51;;;;;;;0.65;0.20;;;;;;;4.41;86.72;100115.31;5061030;28;20045;-81
2021/12/02 04:41:17;;;;;;;0.30;0.10;;;;;;;4.37;84.53;100113.69;5042934;28;20047;-81
2021/12/02 04:43:43;;;;;;;0.35;0.13;;;;;;;4.35;84.50;100116.31;5025841;28;20032;-80
2021/12/02 04:46:08;;;;;;;0.30;0.10;;;;;;;4.32;83.83;100115.56;5043203;28;20048;-80
2021/12/02 04:51:18;;;;;;;0.98;0.10;;;;;;;4.31;84.81;100112.13;5045431;28;20412;-80
2021/12/02 04:53:43;;;;;;;2.53;0.20;;;;;;;4.35;85.54;100118.91;5042844;28;20033;-80
2021/12/02 04:56:09;;;;;;;3.20;0.30;;;;;;;4.33;85.76;100107.75;5060039;28;20031;-80
2021/12/02 04:58:34;;;;;;;1.73;0.15;;;;;;;4.30;84.69;100115.59;5059469;28;20025;-80
2021/12/02 05:01:00;;;;;;;1.77;0.20;;;;;;;4.26;83.84;100124.34;5041042;28;20238;-80
2021/12/02 05:03:25;;;;;;;2.92;0.30;;;;;;;4.21;83.83;100121.84;5025550;28;20236;-80
2021/12/02 05:05:51;;;;;;;0.55;0.20;;;;;;;4.19;84.31;100121.06;5059927;28;20059;-80
2021/12/02 05:08:16;;;;;;;1.25;0.20;;;;;;;4.18;84.86;100115.91;5042488;28;20065;-81
2021/12/02 05:10:41;;;;;;;1.10;0.32;;;;;;;4.16;85.00;100125.47;5059515;28;20036;-80
2021/12/02 05:13:07;;;;;;;9.00;0.75;;;;;;;4.11;83.20;100122.13;5069104;28;20101;-80
2021/12/02 05:15:32;;;;;;;4.90;0.65;;;;;;;4.08;83.84;100123.06;5059033;28;20133;-80
2021/12/02 05:17:58;;;;;;;3.17;0.65;;;;;;;4.04;83.74;100122.28;5039800;28;20045;-80
2021/12/02 05:20:23;;;;;;;1.88;0.40;;;;;;;4.04;83.93;100119.72;5057715;28;20045;-80
2021/12/02 05:22:49;;;;;;;2.85;0.93;;;;;;;4.04;84.71;100130.06;5058994;28;20328;-80
2021/12/02 05:25:14;;;;;;;2.72;0.70;;;;;;;4.03;83.93;100128.34;5025692;28;20043;-80
2021/12/02 05:27:40;;;;;;;4.60;1.10;;;;;;;4.05;84.59;100130.91;5024642;28;20249;-80
2021/12/02 05:30:06;;;;;;;4.65;0.68;;;;;;;4.07;84.72;100118.75;5041953;28;20067;-81
2021/12/02 05:32:31;;;;;;;4.95;0.60;;;;;;;4.05;84.06;100123.13;5024977;28;20037;-80
2021/12/02 05:34:57;;;;;;;5.97;1.27;;;;;;;4.04;83.63;100131.81;5059847;28;20051;-81
2021/12/02 05:37:23;;;;;;;4.53;0.70;;;;;;;4.02;82.98;100134.44;5058732;28;20040;-81
2021/12/02 05:39:48;;;;;;;8.10;1.00;;;;;;;4.02;82.54;100125.81;5025835;28;20029;-80
2021/12/02 05:42:14;;;;;;;7.72;1.30;;;;;;;4.02;81.61;100126.66;5025896;28;20243;-81
2021/12/02 05:44:40;;;;;;;10.05;1.20;;;;;;;4.03;81.86;100122.34;5041632;28;20040;-81
2021/12/02 05:47:06;;;;;;;1.63;0.80;;;;;;;4.08;82.30;100142.97;5059440;28;20043;-80
2021/12/02 05:49:31;;;;;;;6.32;1.05;;;;;;;4.14;82.68;100147.97;5059538;28;20041;-81
2021/12/02 05:51:57;;;;;;;6.82;0.88;;;;;;;4.17;82.03;100151.34;5025803;28;20025;-81
2021/12/02 05:54:22;;;;;;;4.25;0.85;;;;;;;4.15;80.06;100137.56;5059410;28;20040;-81
2021/12/02 05:56:48;;;;;;;6.68;1.05;;;;;;;4.16;79.75;100149.63;5041910;28;20025;-81
2021/12/02 05:59:13;;;;;;;4.45;0.90;;;;;;;4.15;79.44;100139.31;5041729;28;20147;-81
2021/12/02 06:01:42;;;;;;;4.13;0.22;;;;;;;4.13;78.75;100161.81;5041743;28;20074;-81
2021/12/02 06:04:08;;;;;;;10.60;1.45;;;;;;;4.12;79.58;100167.91;5026597;28;20332;-80
2021/12/02 06:06:34;;;;;;;9.48;1.33;;;;;;;4.10;80.72;100164.50;5024576;28;20033;-80
2021/12/02 06:08:59;;;;;;;5.80;0.90;;;;;;;4.06;81.34;100173.22;5040996;28;20328;-80
2021/12/02 06:11:25;;;;;;;7.05;1.42;;;;;;;4.00;81.74;100172.50;5041433;28;20045;-80
2021/12/02 06:13:50;;;;;;;7.82;1.15;;;;;;;3.97;82.41;100177.75;5044692;28;20041;-80
2021/12/02 06:16:16;;;;;;;11.32;1.25;;;;;;;3.94;82.91;100190.75;5064052;28;20047;-80
2021/12/02 06:18:41;;;;;;;3.92;0.70;;;;;;;3.95;83.74;100202.84;5012221;28;20072;-80
2021/12/02 06:21:06;;;;;;;3.55;0.65;;;;;;;3.97;83.13;100195.88;5064445;28;20033;-81
2021/12/02 06:23:32;;;;;;;4.43;0.82;;;;;;;4.00;83.16;100211.38;5028921;28;20045;-80
2021/12/02 06:25:58;;;;;;;6.03;1.05;;;;;;;4.10;84.16;100203.38;5029765;28;20017;-81
2021/12/02 06:28:24;;;;;;;6.28;0.82;;;;;;;4.06;82.55;100196.53;5044941;28;20048;-81
2021/12/02 06:30:50;;;;;;;4.03;0.68;;;;;;;3.96;81.07;100186.41;5063784;28;20037;-81
2021/12/02 06:33:15;;;;;;;2.03;1.08;;;;;;;3.91;80.61;100188.28;5045500;28;20047;-81
2021/12/02 06:35:41;;;;;;;2.92;0.65;;;;;;;3.88;80.67;100187.50;5044976;28;20089;-81
2021/12/02 06:38:07;;;;;;;3.25;0.50;;;;;;;3.82;79.37;100189.31;5045291;28;20107;-80
2021/12/02 06:40:34;;;;;;;1.50;0.30;;;;;;;3.75;79.05;100187.78;5028691;28;20044;-80
2021/12/02 06:43:01;;;;;;;1.80;0.55;;;;;;;3.69;79.66;100171.50;5029188;28;20274;-80
2021/12/02 06:45:26;;;;;;;3.80;0.43;;;;;;;3.63;78.98;100177.69;5026873;28;20082;-80
2021/12/02 06:47:57;;;;;;;3.92;0.50;;;;;;;3.58;79.22;100180.34;5028932;28;20348;-81
2021/12/02 06:50:22;;;;;;;3.10;0.60;;;;;;;3.52;79.37;100172.75;5062680;28;20037;-80
2021/12/02 06:52:49;;;;;;;2.92;0.57;;;;;;;3.48;79.23;100175.44;5061103;28;20216;-81
2021/12/02 06:55:15;;;;;;;6.07;0.50;;;;;;;3.48;80.53;100185.81;5045147;28;20064;-81
2021/12/02 06:57:40;;;;;;;2.60;0.80;;;;;;;3.46;80.63;100185.84;5028195;28;20029;-81
2021/12/02 07:00:08;;;;;;;5.18;1.00;;;;;;;3.46;81.58;100185.84;5045348;28;20205;-81
2021/12/02 07:02:34;;;;;;;5.68;0.95;;;;;;;3.46;81.50;100183.25;5027465;28;20044;-81
2021/12/02 07:05:01;;;;;;;2.97;0.80;;;;;;;3.45;82.00;100184.97;5028345;28;20332;-81
2021/12/02 07:07:31;;;;;;;3.38;0.63;;;;;;;3.49;82.12;100197.84;5043002;28;20100;-81
2021/12/02 07:09:56;;;;;;;3.08;0.50;;;;;;;3.49;81.98;100197.84;5044534;28;20093;-81
2021/12/02 07:12:29;;;;;;;12.43;0.93;;;;;;;3.49;82.50;100195.25;5054128;28;20041;-81
2021/12/02 07:14:54;;;;;;;6.25;0.85;;;;;;;3.50;82.52;100191.78;5047286;28;20037;-80
2021/12/02 07:17:20;;;;;;;2.72;0.60;;;;;;;3.48;82.36;100201.34;5043761;28;20028;-80
2021/12/02 07:19:45;;;;;;;6.07;0.73;;;;;;;3.49;82.33;100203.88;5043437;28;20051;-80
2021/12/02 07:22:11;;;;;;;6.72;1.05;;;;;;;3.47;82.15;100216.00;5070799;28;20093;-81
2021/12/02 07:24:36;;;;;;;1.42;0.43;;;;;;;3.47;82.05;100213.41;5062535;28;20324;-81
2021/12/02 07:27:02;;;;;;;6.88;0.70;;;;;;;3.51;82.73;100204.72;5060661;28;20075;-81
2021/12/02 07:29:27;;;;;;;3.78;0.60;;;;;;;3.55;82.92;100210.69;5009747;28;20044;-81
2021/12/02 07:31:52;;;;;;;1.92;0.52;;;;;;;3.61;83.47;100200.16;5060960;28;20037;-81
2021/12/02 07:34:18;;;;;;;2.75;0.60;;;;;;;3.64;83.89;100213.91;5010387;28;20052;-81
2021/12/02 07:36:43;;;;;;;5.88;0.77;;;;;;;3.67;83.75;100215.56;5041670;28;20316;-81
2021/12/02 07:39:09;;;;;;;6.97;0.75;;;;;;;3.66;82.88;100224.22;5022611;28;20048;-81
2021/12/02 07:41:35;;;;;;;2.22;0.30;;;;;;;3.65;82.63;100223.34;5041228;28;20059;-81
2021/12/02 07:44:00;;;;;;;3.83;0.70;;;;;;;3.69;83.21;100250.03;5039619;28;20027;-81
2021/12/02 07:46:26;;;;;;;7.57;0.90;;;;;;;3.77;83.30;100244.72;5058946;28;20041;-81
2021/12/02 07:48:55;;;;;;;6.50;1.20;;;;;;;3.78;83.35;100251.59;5040214;28;20068;-81
2021/12/02 07:51:20;;;;;;;5.88;1.10;;;;;;;3.85;84.14;100243.63;5025368;28;20116;-81
2021/12/02 07:53:47;;;;;;;5.68;1.02;;;;;;;3.90;84.45;100253.06;5041293;28;20049;-80
2021/12/02 07:56:14;;;;;;;5.03;0.90;;;;;;;3.90;84.02;100258.25;5015106;28;20044;-81
2021/12/02 07:58:40;;;;;;;5.25;1.30;;;;;;;3.95;84.82;100257.25;5034858;28;20234;-80
2021/12/02 08:01:06;;;;;;;4.28;0.52;;;;;;;3.92;84.57;100265.09;5036699;28;20067;-80
2021/12/02 08:03:31;;;;;;;1.50;0.70;;;;;;;3.93;83.42;100255.56;5017244;28;20037;-80
2021/12/02 08:05:56;;;;;;;1.33;0.35;;;;;;;3.96;84.04;100247.72;5039283;28;20090;-80
2021/12/02 08:08:22;;;;;;;4.47;0.50;;;;;;;4.08;84.81;100255.22;5034677;28;20033;-81
2021/12/02 08:10:47;;;;;;;1.95;0.32;;;;;;;4.07;82.82;100282.03;5039349;28;20040;-80
2021/12/02 08:13:14;;;;;;;0.60;0.20;;;;;;;4.10;83.68;100292.31;5039451;28;20041;-81
2021/12/02 08:15:39;;;;;;;1.90;0.40;;;;;;;4.19;84.84;100301.63;5019878;28;20132;-81
2021/12/02 08:18:05;;;;;;;1.15;0.32;;;;;;;4.27;85.55;100294.53;5031931;28;20068;-81
2021/12/02 08:20:30;;;;;;;0.68;0.60;;;;;;;4.34;86.36;100306.44;5032006;28;20033;-81
2021/12/02 08:22:56;;;;;;;3.65;0.60;;;;;;;4.33;86.42;100296.13;5019279;28;20033;-81
2021/12/02 08:25:22;;;;;;;2.85;0.45;;;;;;;4.28;85.76;100300.56;5013993;28;20066;-81
2021/12/02 08:27:48;;;;;;;3.42;0.50;;;;;;;4.22;84.98;100306.72;5021158;28;20080;-81
2021/12/02 08:30:14;;;;;;;3.60;0.52;;;;;;;4.17;84.96;100309.44;5020902;28;20344;-81
2021/12/02 08:32:42;;;;;;;3.13;0.57;;;;;;;4.12;84.72;100316.47;5024665;28;20053;-81
2021/12/02 08:35:08;;;;;;;5.13;0.93;;;;;;;4.04;84.63;100319.22;5038694;28;20063;-81
2021/12/02 08:37:37;;;;;;;0.75;0.40;;;;;;;3.99;84.73;100323.66;5037668;28;20159;-81
2021/12/02 08:40:03;;;;;;;4.28;0.55;;;;;;;3.94;85.01;100325.50;5038543;28;20122;-81
2021/12/02 08:42:32;;;;;;;0.57;0.40;;;;;;;3.91;84.86;100329.88;5035210;28;20329;-80
2021/12/02 08:44:58;;;;;;;7.35;0.60;;;;;;;3.84;84.96;100324.84;5056405;28;20059;-81
2021/12/02 08:47:24;;;;;;;2.55;0.35;;;;;;;3.81;84.80;100334.41;5004028;28;20028;-81
2021/12/02 08:49:53;;;;;;;2.15;0.88;;;;;;;3.77;85.07;100338.81;5035950;28;20045;-81
2021/12/02 08:52:22;;;;;;;5.32;0.80;;;;;;;3.75;85.02;100339.75;5036940;28;20228;-81
2021/12/02 08:54:49;;;;;;;1.48;0.47;;;;;;;3.73;84.93;100333.72;5037871;28;20336;-81
2021/12/02 08:57:14;;;;;;;6.60;0.50;;;;;;;3.80;85.54;100338.75;5038890;28;20197;-81
2021/12/02 08:59:43;;;;;;;3.50;0.60;;;;;;;3.89;85.53;100344.63;5018674;28;20097;-81
2021/12/02 09:02:08;;;;;;;2.70;0.60;;;;;;;3.92;85.69;100342.81;5036690;28;20032;-81
2021/12/02 09:04:33;;;;;;;3.50;0.63;;;;;;;4.03;85.66;100347.75;5032931;28;20264;-81
2021/12/02 09:06:59;;;;;;;2.38;0.70;;;;;;;4.13;86.00;100351.00;5055891;28;20348;-81
2021/12/02 09:09:26;;;;;;;5.07;0.63;;;;;;;4.16;85.46;100356.97;5038077;28;20060;-81
2021/12/02 09:11:51;;;;;;;3.40;0.70;;;;;;;4.30;86.17;100358.44;5038979;28;20040;-81
2021/12/02 09:14:17;;;;;;;1.60;0.65;;;;;;;4.42;86.67;100358.13;5038950;28;20301;-81
2021/12/02 09:16:42;;;;;;;3.53;0.70;;;;;;;4.52;87.00;100354.44;5055724;28;20055;-81
2021/12/02 09:19:08;;;;;;;5.57;0.60;;;;;;;4.60;86.64;100367.22;5038367;28;20041;-81
2021/12/02 09:21:33;;;;;;;1.38;0.47;;;;;;;4.64;87.19;100361.09;5016996;28;20033;-81
2021/12/02 09:23:59;;;;;;;1.92;0.50;;;;;;;4.67;86.75;100361.00;5014727;28;20367;-81
2021/12/02 09:26:25;;;;;;;2.83;0.55;;;;;;;4.68;86.91;100365.31;5051828;28;20049;-81
2021/12/02 09:28:54;;;;;;;2.25;0.60;;;;;;;4.72;86.78;100364.34;5018606;28;20102;-81
2021/12/02 09:31:20;;;;;;;;;;;;;;;4.78;87.29;100373.72;5005553;28;20106;-81
2021/12/02 09:33:46;;;;;;;1.85;0.40;;;;;;;4.86;88.07;100379.59;5021969;28;20273;-81
2021/12/02 09:36:11;;;;;;;5.20;0.55;;;;;;;4.89;87.95;100382.09;5018802;28;20051;-81
2021/12/02 09:38:36;;;;;;;1.35;0.40;;;;;;;4.83;85.53;100394.38;5037333;28;20259;-81
2021/12/02 09:41:03;;;;;;;3.40;0.50;;;;;;;4.84;86.10;100396.94;5037261;28;20078;-81
2021/12/02 09:43:28;;;;;;;2.03;0.60;;;;;;;4.88;87.02;100395.13;5054564;28;20229;-81
2021/12/02 09:45:54;;;;;;;0.30;0.20;;;;;;;4.88;86.17;100392.53;5035572;28;20029;-81
2021/12/02 09:48:19;;;;;;;2.15;0.63;;;;;;;4.94;86.50;100388.00;5028963;28;20344;-81
2021/12/02 09:50:54;;;;;;;1.52;0.20;;;;;;;4.95;85.60;100405.31;5040726;28;20211;-81
2021/12/02 09:53:24;;;;;;;1.23;0.20;;;;;;;4.96;86.54;100404.41;5036368;28;20332;-81
2021/12/02 09:58:24;;;;;;;1.80;0.20;;;;;;;4.87;85.80;100407.22;5041702;28;20037;-81
2021/12/02 10:00:56;;;;;;;2.05;0.50;;;;;;;4.81;85.67;100413.41;5060184;28;20032;-81
2021/12/02 10:06:03;;;;;;;0.60;0.30;;;;;;;4.72;85.13;100411.03;5042682;28;20047;-81
2021/12/02 10:08:32;;;;;;;1.75;0.40;;;;;;;4.72;86.14;100410.19;5025159;28;20036;-81
2021/12/02 10:11:03;;;;;;;2.17;0.75;;;;;;;4.70;86.19;100418.00;5039392;28;20044;-81
2021/12/02 10:16:32;;;;;;;1.70;0.50;;;;;;;4.73;86.50;100432.63;5041142;28;20045;-81
2021/12/02 10:19:03;;;;;;;2.25;0.60;;;;;;;4.77;87.28;100424.75;5042754;28;20248;-81
2021/12/02 10:21:37;;;;;;;1.45;0.60;;;;;;;4.78;86.98;100435.97;5041867;28;20352;-81
2021/12/02 10:24:25;;;;;;;2.08;0.50;;;;;;;4.76;86.76;100438.59;5022257;28;20020;-80
2021/12/02 10:27:01;;;;;;;2.05;0.40;;;;;;;4.74;86.99;100448.16;5042747;28;20116;-81
2021/12/02 10:29:31;;;;;;;1.85;0.45;;;;;;;4.74;87.29;100468.06;5040399;28;20049;-81
2021/12/02 10:32:25;;;;;;;2.85;0.30;;;;;;;4.91;87.53;100488.44;5042511;28;20072;-81
2021/12/02 10:34:58;;;;;;;5.40;0.60;;;;;;;4.97;87.75;100491.75;5021537;28;20064;-81
2021/12/02 10:37:31;;;;;;;3.05;0.52;;;;;;;4.96;87.05;100500.41;5022096;28;20037;-81
2021/12/02 10:40:11;;;;;;;1.77;0.45;;;;;;;4.91;86.99;100499.69;5022829;28;20047;-81
2021/12/02 10:42:41;;;;;;;5.18;0.70;;;;;;;4.83;86.64;100486.03;5008949;28;20025;-81
2021/12/02 10:45:08;;;;;;;1.95;0.52;;;;;;;4.83;87.64;100511.97;5024635;28;20325;-81
2021/12/02 10:47:33;;;;;;;3.75;0.50;;;;;;;4.92;88.78;100513.50;5041596;28;20040;-81
2021/12/02 10:50:09;;;;;;;9.20;1.00;;;;;;;4.97;89.57;100554.03;5039602;28;20055;-81
2021/12/02 10:52:35;;;;;;;3.10;0.75;;;;;;;4.95;89.45;100586.97;5006611;28;20074;-80
2021/12/02 10:55:03;;;;;;;7.03;1.20;;;;;;;4.98;89.74;100558.38;5042113;28;20095;-81
2021/12/02 10:57:30;;;;;;;3.58;0.82;;;;;;;4.97;90.06;100558.38;5007628;28;20348;-80
2021/12/02 11:00:07;;;;;;;2.92;0.70;;;;;;;4.81;87.65;100565.66;5056298;28;20044;-80
2021/12/02 11:02:35;;;;;;;2.85;0.75;;;;;;;4.73;87.51;100564.94;5025610;28;20281;-80
2021/12/02 11:05:11;;;;;;;1.17;0.38;;;;;;;4.63;87.82;100566.03;5024384;28;20021;-81
2021/12/02 11:07:40;;;;;;;2.45;0.40;;;;;;;4.47;86.04;100555.09;5041723;28;20248;-81
2021/12/02 11:10:13;;;;;;;0.43;0.40;;;;;;;4.49;87.21;100554.19;5039531;28;20041;-81
2021/12/02 11:12:40;;;;;;;1.58;0.40;;;;;;;4.52;88.09;100522.16;5037636;28;20388;-81
2021/12/02 11:15:07;;;;;;;2.42;0.52;;;;;;;4.54;88.95;100520.38;5022090;28;20344;-81
2021/12/02 11:17:36;;;;;;;2.50;0.80;;;;;;;4.46;88.22;100540.41;5040247;28;20416;-80
2021/12/02 11:20:05;;;;;;;1.25;0.43;;;;;;;4.34;86.99;100537.19;5055175;28;20040;-80
2021/12/02 11:22:32;;;;;;;1.75;0.70;;;;;;;4.27;86.77;100529.56;5023450;28;20037;-82
2021/12/02 11:24:58;;;;;;;0.65;0.43;;;;;;;4.18;86.64;100515.94;5040675;28;20036;-80
2021/12/02 11:27:35;;;;;;;1.73;0.57;;;;;;;4.11;86.48;100519.50;5023009;28;20126;-80
2021/12/02 11:30:09;;;;;;;1.30;0.68;;;;;;;4.07;86.77;100510.06;5024946;28;20025;-80
2021/12/02 11:32:54;;;;;;;1.02;0.80;;;;;;;4.00;86.70;100514.53;5023502;28;20033;-80
2021/12/02 11:35:40;;;;;;;2.38;0.75;;;;;;;3.96;86.77;100512.84;5040616;28;20025;-80
2021/12/02 11:38:08;;;;;;;1.67;0.52;;;;;;;3.92;86.73;100516.41;5038088;28;20037;-80
2021/12/02 11:40:44;;;;;;;0.57;0.30;;;;;;;3.91;87.21;100519.00;5038210;28;20060;-80
2021/12/02 11:43:11;;;;;;;2.38;0.73;;;;;;;3.89;87.41;100518.19;5056524;28;20037;-80
2021/12/02 11:45:42;;;;;;;3.17;0.82;;;;;;;3.88;87.53;100516.50;5024255;28;20060;-80
2021/12/02 11:48:08;;;;;;;1.15;0.50;;;;;;;3.86;87.50;100508.75;5025671;28;20036;-80
2021/12/02 11:50:33;;;;;;;1.15;0.40;;;;;;;3.84;87.55;100518.28;5023581;28;20036;-80
2021/12/02 11:52:59;;;;;;;0.75;0.35;;;;;;;3.82;87.41;100518.31;5023878;28;20037;-80
2021/12/02 11:55:27;;;;;;;1.95;0.30;;;;;;;3.80;87.60;100529.56;5020151;28;20029;-80
2021/12/02 11:57:53;;;;;;;0.52;0.40;;;;;;;3.75;87.17;100524.47;5020561;28;20043;-80
2021/12/02 12:00:20;;;;;;;1.58;0.50;;;;;;;3.71;86.79;100535.78;5022826;28;20296;-80